Latest Weather Observations for Campbelltown

IDN60801

Issued at 10:32 pm EDT Friday 27 March 2015 (issued every 30 minutes, with the page automatically refreshed every 10 minutes)

About weather observations | Map of weather stations | Latest weather observations for NSW | Other Formats
Station Details ID: 068257 Name: CAMPBELLTOWN (MOUNT ANNAN) Lat: -34.06 Lon: 150.77 Height: 112.0 m
Data from the previous 72 hours. | See also: Recent months at Campbelltown
Date/Time
EDT
Temp
°C
App
Temp
°C
Dew
Point
Rel
Hum
%
Delta-T
°C
Wind Press
QNH
hPa
Press
MSL
hPa
Rain
since 9 am
mm
Dir
 
Spd
km/h
Gust
km/h
Spd
kts
Gust
kts
27/10:30pm 14.6 12.2 4.3 50 4.8 SW 6 7 3 4 - - 0.0
27/10:00pm 17.0 14.5 3.7 41 6.2 SW 6 11 3 6 - - 0.0
27/09:30pm 17.8 15.0 2.9 37 6.9 SSW 7 11 4 6 - - 0.0
27/09:00pm 17.9 14.4 3.4 38 6.8 SSW 11 15 6 8 - - 0.0
27/08:30pm 18.2 15.0 3.3 37 7.0 SSW 9 11 5 6 - - 0.0
27/08:00pm 18.4 15.6 3.1 36 7.1 SSW 7 15 4 8 - - 0.0
27/07:30pm 19.4 16.1 2.7 33 7.8 SSW 9 13 5 7 - - 0.0
27/07:00pm 20.7 16.9 2.0 29 8.7 SW 11 24 6 13 - - 0.0
27/06:30pm 21.8 17.7 2.0 27 9.3 SW 13 19 7 10 - - 0.0
27/06:00pm 23.3 18.8 2.2 25 10.0 SW 15 24 8 13 - - 0.0
27/05:30pm 24.0 19.8 1.6 23 10.6 WSW 13 26 7 14 - - 0.0
27/05:00pm 24.5 20.5 2.6 24 10.6 WSW 13 26 7 14 - - 0.0
27/04:30pm 24.7 19.8 2.2 23 10.8 WSW 17 30 9 16 - - 0.0
27/04:00pm 24.9 20.6 3.0 24 10.7 W 15 24 8 13 - - 0.0
27/03:30pm 24.4 19.5 1.9 23 10.7 W 17 28 9 15 - - 0.0
27/03:00pm 24.7 19.2 0.9 21 11.2 W 19 33 10 18 - - 0.0
27/02:30pm 24.7 19.7 1.6 22 11.0 WSW 17 33 9 18 - - 0.0
27/02:00pm 23.8 19.3 2.0 24 10.4 WSW 15 22 8 12 - - 0.0
27/01:30pm 23.1 19.1 2.6 26 9.8 W 13 32 7 17 - - 0.0
27/01:00pm 22.5 18.9 3.1 28 9.3 WNW 11 20 6 11 - - 0.0
27/12:30pm 22.1 18.1 2.8 28 9.2 W 13 28 7 15 - - 0.0
27/12:00pm 21.3 16.8 2.1 28 9.0 SW 15 32 8 17 - - 0.0
27/11:30am 20.9 16.5 2.7 30 8.6 WSW 15 30 8 16 - - 0.0
27/11:00am 19.9 16.0 3.2 33 7.9 WSW 13 30 7 16 - - 0.0
27/10:30am 18.7 14.3 2.5 34 7.5 WSW 15 26 8 14 - - 0.0
27/10:00am 17.9 13.0 2.2 35 7.2 WSW 17 28 9 15 - - 0.0
27/09:30am 17.0 11.8 2.6 38 6.6 W 19 35 10 19 - - 0.0
27/09:00am 15.9 11.4 2.0 39 6.2 WSW 15 26 8 14 - - 0.0
27/08:30am 14.8 11.0 1.7 41 5.8 WSW 11 20 6 11 - - 0.0
27/08:00am 13.7 10.2 1.4 43 5.3 WSW 9 22 5 12 - - 0.0
27/07:30am 12.1 8.6 1.4 48 4.6 SW 9 15 5 8 - - 0.0
27/07:00am 11.5 8.4 1.5 50 4.2 WSW 7 11 4 6 - - 0.0
27/06:30am 11.5 8.0 1.5 50 4.2 WSW 9 11 5 6 - - 0.0
27/06:00am 10.1 6.7 1.7 56 3.5 SW 9 15 5 8 - - 0.0
27/05:30am 8.5 5.7 1.9 63 2.7 SW 6 9 3 5 - - 0.0
27/05:00am 9.5 7.5 2.1 60 3.1 NW 2 6 1 3 - - 0.0
27/04:30am 10.3 7.2 1.2 53 3.8 WSW 7 9 4 5 - - 0.0
27/04:00am 8.9 6.0 1.6 60 3.0 SW 6 11 3 6 - - 0.0
27/03:30am 9.8 6.9 1.5 56 3.5 WSW 6 9 3 5 - - 0.0
27/03:00am 11.4 8.4 0.5 47 4.5 WSW 6 9 3 5 - - 0.0
27/02:30am 13.1 9.7 -0.5 39 5.6 WSW 7 11 4 6 - - 0.0
27/02:00am 14.7 10.8 -1.4 33 6.6 WSW 9 13 5 7 - - 0.0
27/01:30am 14.6 10.7 -1.5 33 6.6 WSW 9 15 5 8 - - 0.0
27/01:00am 14.7 10.8 -1.4 33 6.6 W 9 13 5 7 - - 0.0
27/12:30am 15.9 11.6 -1.6 30 7.2 WSW 11 20 6 11 - - 0.0
27/12:00am 16.0 12.1 -1.5 30 7.3 WSW 9 15 5 8 - - 0.0
 
Date/Time
EDT
Temp
°C
App
Temp
°C
Dew
Point
Rel
Hum
%
Delta-T
°C
Wind Press
QNH
hPa
Press
MSL
hPa
Rain
since 9 am
mm
Dir
 
Spd
km/h
Gust
km/h
Spd
kts
Gust
kts
26/11:30pm 16.8 12.5 -1.3 29 7.6 WSW 11 24 6 13 - - 0.0
26/11:00pm 16.7 12.4 -1.4 29 7.6 SW 11 22 6 12 - - 0.0
26/10:30pm 16.9 13.5 1.8 36 6.8 SSW 9 17 5 9 - - 0.0
26/10:00pm 17.9 14.5 1.8 34 7.3 SW 9 13 5 7 - - 0.0
26/09:30pm 17.6 14.4 4.9 43 6.1 SW 11 15 6 8 - - 0.0
26/09:00pm 16.1 15.0 5.1 48 5.3 CALM 0 6 0 3 - - 0.0
26/08:30pm 18.5 16.1 5.4 42 6.4 SW 7 11 4 6 - - 0.0
26/08:00pm 19.9 17.2 3.6 34 7.8 SW 7 13 4 7 - - 0.0
26/07:30pm 20.4 17.3 3.6 33 8.0 SW 9 15 5 8 - - 0.0
26/07:00pm 21.8 18.6 3.0 29 9.0 WSW 9 13 5 7 - - 0.0
26/06:30pm 23.1 19.0 2.0 25 10.0 WSW 13 20 7 11 - - 0.0
26/06:00pm 24.5 20.9 3.2 25 10.4 WSW 11 19 6 10 - - 0.0
26/05:30pm 24.9 20.6 3.0 24 10.7 W 15 26 8 14 - - 0.0
26/05:00pm 24.7 19.8 2.2 23 10.8 WSW 17 32 9 17 - - 0.0
26/04:30pm 24.5 20.4 4.3 27 10.1 SW 15 26 8 14 - - 0.0
26/04:00pm 25.5 21.1 2.9 23 11.1 SW 15 26 8 14 - - 0.0
26/03:30pm 25.0 21.7 6.2 30 9.7 W 13 20 7 11 - - 0.0
26/03:00pm 25.3 22.2 7.4 32 9.5 SW 13 24 7 13 - - 0.0
26/02:30pm 24.9 21.9 7.5 33 9.2 WSW 13 20 7 11 - - 0.0
26/02:00pm 24.7 21.9 8.6 36 8.7 WSW 13 20 7 11 - - 0.0
26/01:30pm 23.7 20.3 6.0 32 9.1 W 13 26 7 14 - - 0.0
26/01:00pm 23.6 19.8 6.0 32 9.0 W 15 26 8 14 - - 0.0
26/12:30pm 23.9 20.9 5.8 31 9.2 WNW 11 24 6 13 - - 0.0
26/12:00pm 23.8 21.5 7.4 35 8.6 WSW 9 17 5 9 - - 0.0
26/11:30am 23.2 20.9 7.3 36 8.3 SW 9 15 5 8 - - 0.0
26/11:00am 22.3 19.7 7.7 39 7.6 SW 11 17 6 9 - - 0.0
26/10:30am 21.4 20.2 11.7 54 5.4 SW 9 15 5 8 - - 0.0
26/10:00am 19.7 18.8 12.7 64 4.0 SW 9 17 5 9 - - 0.0
26/09:30am 18.9 18.3 13.5 71 3.1 SW 9 13 5 7 - - 0.0
26/09:00am 17.5 17.8 15.0 85 1.5 SSW 7 9 4 5 - - 0.2
26/08:30am 15.7 15.9 14.6 93 0.6 SSW 7 11 4 6 - - 0.2
26/08:00am 13.9 13.7 13.7 99 0.1 S 7 9 4 5 - - 0.2
26/07:30am 12.3 12.9 12.0 98 0.2 CALM 0 7 0 4 - - 0.2
26/07:00am 12.4 12.2 11.9 97 0.3 S 4 7 2 4 - - 0.2
26/06:30am 12.9 12.9 12.4 97 0.3 S 4 6 2 3 - - 0.2
26/06:00am 13.2 12.9 12.6 96 0.3 S 6 6 3 3 - - 0.2
26/05:30am 13.7 13.5 12.9 95 0.4 S 6 7 3 4 - - 0.2
26/05:00am 14.2 14.1 13.4 95 0.4 SSW 6 9 3 5 - - 0.2
26/04:30am 14.2 15.3 13.4 95 0.4 CALM 0 0 0 0 - - 0.2
26/04:00am 14.4 15.5 13.6 95 0.4 CALM 0 0 0 0 - - 0.2
26/03:30am 14.6 15.7 13.5 93 0.6 CALM 0 0 0 0 - - 0.2
26/03:00am 15.2 16.5 14.1 93 0.6 CALM 0 0 0 0 - - 0.2
26/02:30am 15.2 16.5 14.1 93 0.6 CALM 0 4 0 2 - - 0.2
26/02:00am 15.4 15.7 14.4 94 0.6 ENE 6 6 3 3 - - 0.2
26/01:30am 15.1 16.5 14.3 95 0.5 CALM 0 0 0 0 - - 0.2
26/01:00am 15.1 16.6 14.6 97 0.3 CALM 0 0 0 0 - - 0.2
26/12:30am 14.7 16.0 14.2 97 0.3 CALM 0 0 0 0 - - 0.2
26/12:00am 14.3 15.5 13.8 97 0.3 CALM 0 0 0 0 - - 0.2
 
Date/Time
EDT
Temp
°C
App
Temp
°C
Dew
Point
Rel
Hum
%
Delta-T
°C
Wind Press
QNH
hPa
Press
MSL
hPa
Rain
since 9 am
mm
Dir
 
Spd
km/h
Gust
km/h
Spd
kts
Gust
kts
25/11:30pm 13.9 14.6 13.3 96 0.3 ENE 2 7 1 4 - - 0.2
25/11:00pm 13.9 14.7 12.6 92 0.7 CALM 0 0 0 0 - - 0.2
25/10:30pm 14.3 15.3 13.2 93 0.6 CALM 0 0 0 0 - - 0.2
25/10:00pm 14.1 14.8 12.3 89 1.0 CALM 0 0 0 0 - - 0.2
25/09:30pm 14.6 15.5 12.8 89 1.0 CALM 0 0 0 0 - - 0.2
25/09:00pm 15.0 15.8 12.7 86 1.3 CALM 0 0 0 0 - - 0.2
25/08:30pm 16.0 16.9 12.9 82 1.7 CALM 0 2 0 1 - - 0.2
25/08:00pm 16.8 16.9 12.7 77 2.3 ENE 4 7 2 4 - - 0.2
25/07:30pm 17.5 17.2 12.8 74 2.6 ENE 6 9 3 5 - - 0.2
25/07:00pm 18.1 17.7 12.3 69 3.2 ESE 6 9 3 5 - - 0.2
25/06:30pm 19.0 18.1 12.5 66 3.7 ESE 9 24 5 13 - - 0.2
25/06:00pm 20.0 18.4 12.7 63 4.1 SE 13 24 7 13 - - 0.2
25/05:30pm 20.8 19.3 13.0 61 4.5 ESE 13 28 7 15 - - 0.2
25/05:00pm 20.1 19.2 12.6 62 4.2 ESE 9 20 5 11 - - 0.2
25/04:30pm 20.7 19.8 12.7 60 4.5 SSE 9 22 5 12 - - 0.2
25/04:00pm 21.0 19.8 12.9 60 4.6 ESE 11 20 6 11 - - 0.2
25/03:30pm 21.9 20.4 13.0 57 5.1 SE 13 19 7 10 - - 0.2
25/03:00pm 22.3 20.7 11.7 51 6.0 SE 11 20 6 11 - - 0.2
25/02:30pm 23.0 21.8 11.7 49 6.4 ESE 9 17 5 9 - - 0.2
25/02:00pm 23.3 22.7 12.3 50 6.3 SSE 7 17 4 9 - - 0.2
25/01:30pm 21.6 20.7 12.5 56 5.2 SSE 9 17 5 9 - - 0.2
25/01:00pm 21.3 20.5 13.0 59 4.8 SE 9 13 5 7 - - 0.2
25/12:30pm 21.6 21.4 13.0 58 4.9 E 6 11 3 6 - - 0.2
25/12:00pm 21.2 20.8 12.3 57 5.0 SSE 6 11 3 6 - - 0.2
25/11:30am 22.1 21.9 13.5 58 5.0 SE 7 17 4 9 - - 0.0
25/11:00am 20.6 20.1 13.8 65 3.9 SSW 9 13 5 7 - - 0.0
25/10:30am 20.0 19.6 13.0 64 4.0 SW 7 13 4 7 - - 0.0
25/10:00am 18.6 17.1 11.9 65 3.7 SSW 11 17 6 9 - - 0.0
25/09:30am 17.6 16.7 12.5 72 2.8 SSW 9 15 5 8 - - 0.0
25/09:00am 16.4 16.3 13.9 85 1.4 SW 7 15 4 8 - - 7.2
25/08:30am 14.3 15.1 13.8 97 0.3 SSW 2 9 1 5 - - 7.2
25/08:00am 12.2 12.8 12.0 99 0.1 CALM 0 0 0 0 - - 7.2
25/07:30am 11.1 11.4 10.8 98 0.2 CALM 0 0 0 0 - - 7.2
25/07:00am 10.8 10.5 10.2 96 0.3 SSW 2 6 1 3 - - 7.2
25/06:30am 11.5 11.8 10.9 96 0.3 CALM 0 6 0 3 - - 7.2
25/06:00am 12.0 11.6 11.2 95 0.4 SW 4 9 2 5 - - 7.2
25/05:30am 12.4 12.5 11.5 94 0.5 SSW 2 7 1 4 - - 7.2
25/05:00am 12.3 11.4 11.5 95 0.4 SSW 7 11 4 6 - - 7.2
25/04:30am 11.6 10.5 10.7 94 0.5 SSW 7 11 4 6 - - 7.2
25/04:00am 11.8 10.8 10.9 94 0.5 SSW 7 9 4 5 - - 7.2
25/03:30am 12.4 11.6 11.0 91 0.7 S 6 7 3 4 - - 7.2
25/03:00am 13.0 12.2 11.1 88 1.0 S 6 9 3 5 - - 7.2
25/02:30am 13.0 12.3 11.4 90 0.9 S 6 11 3 6 - - 7.2
25/02:00am 13.2 12.6 11.8 91 0.8 S 6 7 3 4 - - 7.2
25/01:30am 13.5 13.0 12.1 91 0.8 S 6 9 3 5 - - 7.0
25/01:00am 13.8 13.4 12.5 92 0.7 SSW 6 7 3 4 - - 7.0
25/12:30am 15.0 15.0 14.2 95 0.5 SSW 7 9 4 5 - - 7.0
25/12:00am 16.6 17.4 15.8 95 0.5 SW 6 9 3 5 - - 7.0
 
Date/Time
EDT
Temp
°C
App
Temp
°C
Dew
Point
Rel
Hum
%
Delta-T
°C
Wind Press
QNH
hPa
Press
MSL
hPa
Rain
since 9 am
mm
Dir
 
Spd
km/h
Gust
km/h
Spd
kts
Gust
kts
24/11:30pm 17.6 18.7 17.0 96 0.4 SW 7 11 4 6 - - 7.0
24/11:00pm 18.1 19.2 17.9 99 0.1 SW 9 13 5 7 - - 7.0

Other Formats:

Comma delimited format used in spreadsheet applications
http://www.bom.gov.au/fwo/IDN60801/IDN60801.94757.axf

JavaScript Object Notation format (JSON) in row-major order
http://www.bom.gov.au/fwo/IDN60801/IDN60801.94757.json